Arnold, Kansas
Current Conditions -  °F | °C
As of 10:55 PM on Friday 28 Nov 2014 (Local Time) from KHYS Reporting Station
Clear Clear  
Wind Chill:   Ceiling: Unl
Heat Index:   Visibility: 10mi
Dew Point: -4°   Wind: 5mph
Humidity: 43%   Direction: 240°WSW
Pressure: 29.7"   Gusts: NA
Location:  38.64°N, 100.05°W
Report Text: KHYS 290455Z AUTO 24004KT 10SM CLR 08/M04 A2970 RMK AO1
Loading
Personal Weather Stations






























Interactive Weather Map New forecast layout! Learn more

10-Day Weather Forecast

Advertisements
Track Severe Weather on mobile